Time;durP1;ratioP1;P1;durP2;ratioP2;P2;SDS_P1;SDS_P2;PMS_P1;PMS_P2;Temp;Humidity;BMP_temperature;BMP_pressure;BME280_temperature;BME280_humidity;BME280_pressure;Samples;Min_cycle;Max_cycle;Signal;HPM_P1;HPM_P2
2022/04/24 00:00:39;;;;;;;14.23;9.98;;;13.00;99.90;;;;;;5038903;28;20431;-92
2022/04/24 00:03:05;;;;;;;12.77;9.40;;;13.00;99.90;;;;;;5039166;28;20499;-93
2022/04/24 00:05:30;;;;;;;14.38;9.38;;;13.00;99.90;;;;;;5039187;28;20029;-93
2022/04/24 00:07:56;;;;;;;13.35;9.10;;;13.00;99.90;;;;;;5039057;28;20159;-93
2022/04/24 00:10:22;;;;;;;11.63;8.93;;;13.00;99.90;;;;;;5039030;28;20028;-93
2022/04/24 00:12:48;;;;;;;12.95;8.93;;;13.00;99.90;;;;;;5039079;28;20029;-95
2022/04/24 00:15:14;;;;;;;11.05;8.05;;;13.00;99.90;;;;;;5039188;28;20489;-94
2022/04/24 00:17:40;;;;;;;12.77;9.02;;;13.00;99.90;;;;;;5039043;28;20021;-93
2022/04/24 00:20:06;;;;;;;12.00;9.07;;;13.00;99.90;;;;;;5039149;28;20522;-94
2022/04/24 00:22:32;;;;;;;12.35;9.25;;;13.00;99.90;;;;;;5038885;28;20171;-93
2022/04/24 00:24:58;;;;;;;11.52;8.75;;;13.00;99.90;;;;;;5039106;28;20508;-94
2022/04/24 00:27:23;;;;;;;13.02;8.95;;;13.00;99.90;;;;;;5021897;28;20047;-94
2022/04/24 00:29:49;;;;;;;11.48;8.57;;;13.00;99.90;;;;;;5039034;28;20079;-93
2022/04/24 00:32:15;;;;;;;10.23;8.25;;;13.00;99.90;;;;;;5056182;28;20528;-94
2022/04/24 00:34:41;;;;;;;14.27;9.23;;;13.00;99.90;;;;;;5038373;28;20036;-93
2022/04/24 00:37:07;;;;;;;12.38;8.85;;;12.90;99.90;;;;;;5038981;28;20108;-94
2022/04/24 00:39:33;;;;;;;11.77;9.05;;;12.90;99.90;;;;;;5038862;28;20029;-94
2022/04/24 00:41:59;;;;;;;14.57;8.57;;;12.90;99.90;;;;;;5038644;28;20021;-94
2022/04/24 00:44:27;;;;;;;11.68;8.80;;;12.90;99.90;;;;;;5038501;28;20590;-94
2022/04/24 00:47:12;;;;;;;12.50;9.13;;;12.90;99.90;;;;;;5038630;28;20025;-93
2022/04/24 00:49:40;;;;;;;12.00;9.05;;;12.90;99.90;;;;;;5038929;28;20071;-94
2022/04/24 00:52:05;;;;;;;11.88;8.60;;;12.90;99.90;;;;;;5038323;28;20029;-93
2022/04/24 00:54:32;;;;;;;11.43;8.95;;;12.90;99.90;;;;;;5055579;28;20035;-94
2022/04/24 00:56:58;;;;;;;11.65;9.05;;;12.90;99.90;;;;;;5038212;28;20063;-94
2022/04/24 00:59:24;;;;;;;11.40;8.75;;;12.90;99.90;;;;;;5038361;28;20095;-93
2022/04/24 01:01:49;;;;;;;13.07;9.02;;;12.90;99.90;;;;;;5038326;28;20028;-94
2022/04/24 01:04:16;;;;;;;12.70;9.48;;;12.90;99.90;;;;;;5038305;28;20021;-93
2022/04/24 01:06:43;;;;;;;12.18;8.98;;;12.90;99.90;;;;;;5038287;28;20025;-93
2022/04/24 01:09:20;;;;;;;14.07;8.25;;;12.90;99.90;;;;;;5037865;28;20420;-93
2022/04/24 01:11:49;;;;;;;11.88;9.00;;;12.90;99.90;;;;;;5037611;28;20063;-94
2022/04/24 01:14:18;;;;;;;12.45;9.02;;;12.90;99.90;;;;;;5037541;28;20021;-94
2022/04/24 01:16:45;;;;;;;10.98;8.82;;;12.90;99.90;;;;;;5037818;28;20041;-93
2022/04/24 01:19:12;;;;;;;11.63;9.10;;;12.90;99.90;;;;;;5038453;28;20369;-93
2022/04/24 01:21:40;;;;;;;10.57;8.23;;;12.90;99.90;;;;;;5038050;28;20021;-94
2022/04/24 01:24:07;;;;;;;11.68;8.77;;;12.90;99.90;;;;;;5037365;28;20049;-93
2022/04/24 01:26:34;;;;;;;10.02;8.00;;;12.90;99.90;;;;;;5037643;28;20033;-94
2022/04/24 01:28:59;;;;;;;12.00;8.57;;;12.90;99.90;;;;;;5037453;28;20032;-93
2022/04/24 01:31:25;;;;;;;11.20;8.38;;;12.90;99.90;;;;;;5037620;28;20401;-94
2022/04/24 01:33:51;;;;;;;11.35;8.60;;;12.90;99.90;;;;;;5037323;28;20025;-93
2022/04/24 01:36:16;;;;;;;9.73;8.38;;;12.90;99.90;;;;;;5037295;28;20020;-94
2022/04/24 01:38:43;;;;;;;10.98;8.65;;;12.90;99.90;;;;;;5054921;28;20052;-94
2022/04/24 01:41:09;;;;;;;12.27;8.82;;;12.90;99.90;;;;;;5037336;28;20025;-94
2022/04/24 01:43:36;;;;;;;12.25;8.50;;;12.90;99.90;;;;;;5037274;28;20029;-93
2022/04/24 01:46:06;;;;;;;11.45;8.77;;;12.90;99.90;;;;;;5037240;28;20043;-94
2022/04/24 01:48:35;;;;;;;10.27;8.38;;;12.90;99.90;;;;;;5037070;28;20560;-93
2022/04/24 01:51:05;;;;;;;12.30;9.63;;;12.90;99.90;;;;;;5054862;28;20108;-93
2022/04/24 01:53:32;;;;;;;10.88;8.63;;;12.90;99.90;;;;;;5037150;28;20033;-93
2022/04/24 01:55:59;;;;;;;10.68;8.80;;;12.90;99.90;;;;;;5037313;28;20079;-93
2022/04/24 01:58:26;;;;;;;10.98;8.88;;;12.90;99.90;;;;;;5037295;28;20060;-93
2022/04/24 02:00:52;;;;;;;11.45;8.55;;;12.80;99.90;;;;;;5037290;28;20025;-94
2022/04/24 02:03:18;;;;;;;11.43;8.65;;;12.80;99.90;;;;;;5037392;28;20388;-93
2022/04/24 02:05:44;;;;;;;11.73;8.75;;;12.80;99.90;;;;;;5037237;28;20025;-93
2022/04/24 02:08:11;;;;;;;11.57;8.82;;;12.80;99.90;;;;;;5037254;28;20025;-94
2022/04/24 02:10:36;;;;;;;11.25;9.07;;;12.80;99.90;;;;;;5037041;28;20029;-95
2022/04/24 02:13:02;;;;;;;12.73;9.50;;;12.80;99.90;;;;;;5037305;28;20036;-94
2022/04/24 02:15:28;;;;;;;11.18;8.70;;;12.80;99.90;;;;;;5036568;28;20029;-93
2022/04/24 02:17:55;;;;;;;12.40;8.63;;;12.80;99.90;;;;;;5036752;28;20025;-95
2022/04/24 02:20:21;;;;;;;12.18;9.00;;;12.80;99.90;;;;;;5036483;28;20025;-94
2022/04/24 02:22:46;;;;;;;12.57;8.98;;;12.80;99.90;;;;;;5027908;28;20041;-94
2022/04/24 02:25:12;;;;;;;10.27;8.52;;;12.80;99.90;;;;;;5016795;28;20056;-95
2022/04/24 02:27:38;;;;;;;12.45;8.65;;;12.80;99.90;;;;;;5016950;28;20041;-94
2022/04/24 02:30:05;;;;;;;10.68;8.63;;;12.80;99.90;;;;;;5016690;28;20021;-95
2022/04/24 02:32:31;;;;;;;9.65;7.80;;;12.80;99.90;;;;;;5017564;28;20109;-95
2022/04/24 02:34:56;;;;;;;11.18;8.43;;;12.80;99.90;;;;;;5016611;28;20537;-95
2022/04/24 02:37:22;;;;;;;11.07;8.20;;;12.80;99.90;;;;;;5017254;28;20079;-95
2022/04/24 02:39:48;;;;;;;12.77;8.50;;;12.80;99.90;;;;;;5017687;28;20029;-96
2022/04/24 02:42:14;;;;;;;11.90;7.95;;;12.80;99.90;;;;;;5016617;28;20074;-95
2022/04/24 02:44:39;;;;;;;10.88;8.52;;;12.80;99.90;;;;;;5016907;28;20087;-96
2022/04/24 02:47:06;;;;;;;12.35;8.55;;;12.80;99.90;;;;;;5016839;28;20025;-95
2022/04/24 02:49:31;;;;;;;10.98;8.40;;;12.80;99.90;;;;;;5016295;28;20187;-96
2022/04/24 02:51:57;;;;;;;11.45;8.25;;;12.80;99.90;;;;;;5016356;28;20064;-96
2022/04/24 02:54:23;;;;;;;12.43;8.63;;;12.80;99.90;;;;;;5016594;28;20030;-96
2022/04/24 02:56:48;;;;;;;11.05;8.40;;;12.80;99.90;;;;;;5016433;28;20022;-95
2022/04/24 02:59:16;;;;;;;12.50;8.52;;;12.80;99.90;;;;;;5016395;28;20113;-96
2022/04/24 03:01:42;;;;;;;11.23;8.57;;;12.80;99.90;;;;;;5016682;28;20083;-96
2022/04/24 03:04:08;;;;;;;11.60;8.63;;;12.80;99.90;;;;;;5016615;28;20022;-96
2022/04/24 03:06:34;;;;;;;13.52;9.60;;;12.80;99.90;;;;;;5017167;28;20080;-95
2022/04/24 03:08:59;;;;;;;10.60;8.82;;;12.80;99.90;;;;;;5016573;28;20091;-96
2022/04/24 03:11:25;;;;;;;9.98;8.38;;;12.80;99.90;;;;;;5017521;28;20029;-95
2022/04/24 03:13:51;;;;;;;11.23;9.25;;;12.80;99.90;;;;;;5016270;28;20026;-96
2022/04/24 03:16:17;;;;;;;10.77;8.23;;;12.70;99.90;;;;;;5016658;28;20469;-94
2022/04/24 03:18:43;;;;;;;10.82;8.77;;;12.70;99.90;;;;;;5016696;28;20362;-96
2022/04/24 03:21:09;;;;;;;11.13;8.93;;;12.70;99.90;;;;;;5016762;28;20018;-95
2022/04/24 03:23:34;;;;;;;13.40;9.55;;;12.70;99.90;;;;;;5016257;28;20492;-96
2022/04/24 03:26:00;;;;;;;10.68;8.70;;;12.70;99.90;;;;;;5016299;28;20041;-96
2022/04/24 03:28:26;;;;;;;11.85;9.10;;;12.70;99.90;;;;;;5016475;28;20025;-96
2022/04/24 03:30:52;;;;;;;9.60;8.57;;;12.70;99.90;;;;;;5016501;28;20038;-96
2022/04/24 03:33:17;;;;;;;10.95;9.27;;;12.70;99.90;;;;;;5016877;28;20033;-95
2022/04/24 03:35:43;;;;;;;11.65;8.73;;;12.70;99.90;;;;;;5016053;28;20064;-95
2022/04/24 03:38:08;;;;;;;13.43;9.20;;;12.70;99.90;;;;;;5016140;28;20441;-96
2022/04/24 03:40:34;;;;;;;12.52;9.27;;;12.70;99.90;;;;;;5016170;28;20053;-95
2022/04/24 03:43:00;;;;;;;11.20;8.98;;;12.70;99.90;;;;;;5016083;28;20021;-95
2022/04/24 03:45:26;;;;;;;11.25;8.82;;;12.70;99.90;;;;;;5016577;28;20029;-96
2022/04/24 03:47:54;;;;;;;14.00;8.80;;;12.70;99.90;;;;;;5016177;28;20447;-96
2022/04/24 03:50:20;;;;;;;10.95;9.07;;;12.70;99.90;;;;;;5015908;28;20060;-96
2022/04/24 03:52:46;;;;;;;10.57;9.27;;;12.70;99.90;;;;;;5016264;28;20029;-96
2022/04/24 03:55:12;;;;;;;11.38;9.00;;;12.70;99.90;;;;;;5015939;28;20033;-96
2022/04/24 03:57:38;;;;;;;10.85;8.52;;;12.70;99.90;;;;;;5015795;28;20485;-95
2022/04/24 04:00:05;;;;;;;10.30;8.68;;;12.70;99.90;;;;;;5016277;28;20422;-95
2022/04/24 04:02:31;;;;;;;10.75;8.07;;;12.70;99.90;;;;;;5018297;28;20035;-95
2022/04/24 04:04:57;;;;;;;10.13;8.38;;;12.70;99.90;;;;;;5019574;28;20029;-95
2022/04/24 04:07:23;;;;;;;12.50;8.48;;;12.70;99.90;;;;;;5019398;28;20099;-94
2022/04/24 04:09:49;;;;;;;12.35;9.13;;;12.70;99.90;;;;;;5019461;28;20033;-94
2022/04/24 04:12:15;;;;;;;13.00;8.73;;;12.70;99.90;;;;;;5019357;28;20545;-94
2022/04/24 04:14:40;;;;;;;10.48;8.57;;;12.70;99.90;;;;;;5018925;28;20057;-92
2022/04/24 04:17:06;;;;;;;11.40;9.00;;;12.70;99.90;;;;;;5018690;28;20024;-90
2022/04/24 04:19:32;;;;;;;11.85;9.10;;;12.70;99.90;;;;;;5036358;28;20104;-91
2022/04/24 04:21:58;;;;;;;10.80;8.60;;;12.60;99.90;;;;;;5019939;28;20044;-90
2022/04/24 04:24:24;;;;;;;10.77;8.70;;;12.60;99.90;;;;;;5056005;28;20383;-89
2022/04/24 04:26:49;;;;;;;12.63;9.02;;;12.50;99.90;;;;;;5037493;28;20395;-85
2022/04/24 04:29:15;;;;;;;10.45;8.32;;;12.50;99.90;;;;;;5037552;28;20029;-84
2022/04/24 04:31:40;;;;;;;11.73;8.10;;;12.40;99.90;;;;;;5037394;28;20051;-83
2022/04/24 04:34:06;;;;;;;12.80;7.93;;;12.40;99.90;;;;;;5055113;28;20040;-83
2022/04/24 04:36:32;;;;;;;9.20;6.72;;;12.40;99.90;;;;;;5055192;28;20039;-84
2022/04/24 04:38:57;;;;;;;8.75;6.45;;;12.40;99.90;;;;;;5055066;28;20031;-87
2022/04/24 04:41:23;;;;;;;8.32;6.45;;;12.40;99.90;;;;;;5037404;28;20427;-87
2022/04/24 04:43:49;;;;;;;8.98;5.82;;;12.40;99.90;;;;;;5037211;28;20025;-83
2022/04/24 04:46:14;;;;;;;7.20;5.05;;;12.30;99.90;;;;;;5037268;28;20056;-85
2022/04/24 04:48:40;;;;;;;8.80;5.43;;;12.20;99.90;;;;;;5037003;28;20116;-84
2022/04/24 04:51:06;;;;;;;7.25;4.75;;;12.20;99.90;;;;;;5037139;28;20029;-84
2022/04/24 04:53:32;;;;;;;6.10;3.60;;;12.20;99.90;;;;;;5037216;28;20116;-84
2022/04/24 04:55:58;;;;;;;7.35;3.47;;;12.20;99.90;;;;;;5037038;28;20021;-91
2022/04/24 04:58:24;;;;;;;5.18;3.58;;;12.10;99.90;;;;;;5037754;28;20025;-87
2022/04/24 05:00:49;;;;;;;4.95;3.58;;;12.10;99.90;;;;;;5037064;28;20029;-83
2022/04/24 05:03:15;;;;;;;9.23;3.38;;;12.10;99.90;;;;;;5054841;28;20025;-84
2022/04/24 05:05:41;;;;;;;5.20;2.90;;;12.10;99.90;;;;;;5036978;28;20017;-84
2022/04/24 05:08:08;;;;;;;4.22;2.35;;;12.10;99.90;;;;;;5036922;28;20476;-83
2022/04/24 05:10:33;;;;;;;4.57;2.60;;;12.10;99.90;;;;;;5037012;28;20024;-85
2022/04/24 05:12:59;;;;;;;2.65;1.95;;;12.10;99.90;;;;;;5036432;28;20024;-83
2022/04/24 05:15:25;;;;;;;3.50;1.80;;;12.00;99.90;;;;;;5036843;28;20067;-82
2022/04/24 05:17:52;;;;;;;3.30;2.20;;;12.00;99.90;;;;;;5054778;28;20024;-85
2022/04/24 05:20:18;;;;;;;2.83;2.15;;;12.10;99.90;;;;;;5054363;28;20024;-83
2022/04/24 05:22:43;;;;;;;2.40;1.65;;;12.10;99.90;;;;;;5054505;28;20033;-83
2022/04/24 05:25:10;;;;;;;2.38;1.75;;;12.10;99.90;;;;;;5036447;28;20060;-83
2022/04/24 05:27:37;;;;;;;2.17;1.70;;;12.10;99.90;;;;;;5054244;28;20100;-84
2022/04/24 05:30:05;;;;;;;2.05;1.40;;;12.00;99.90;;;;;;5054567;28;20369;-84
2022/04/24 05:32:48;;;;;;;1.50;1.40;;;12.10;99.90;;;;;;5036281;28;20111;-83
2022/04/24 05:35:16;;;;;;;1.92;1.38;;;12.10;99.90;;;;;;5036255;28;20029;-84
2022/04/24 05:37:42;;;;;;;1.63;1.38;;;12.10;99.90;;;;;;5036104;28;20036;-87
2022/04/24 05:40:08;;;;;;;3.58;1.67;;;12.00;99.90;;;;;;5036084;28;20025;-85
2022/04/24 05:42:34;;;;;;;1.80;1.20;;;12.00;99.90;;;;;;5053962;28;20029;-85
2022/04/24 05:45:01;;;;;;;1.85;0.95;;;12.00;99.90;;;;;;5053937;28;20031;-83
2022/04/24 05:47:27;;;;;;;2.05;1.02;;;12.00;99.90;;;;;;5036042;28;20025;-84
2022/04/24 05:49:53;;;;;;;1.40;0.90;;;11.90;99.90;;;;;;5035951;28;20033;-84
2022/04/24 05:52:19;;;;;;;1.80;1.10;;;12.00;99.90;;;;;;5035934;28;20135;-85
2022/04/24 05:54:44;;;;;;;1.60;0.90;;;12.00;99.90;;;;;;5035892;28;20029;-84
2022/04/24 05:57:10;;;;;;;1.55;0.90;;;12.00;99.90;;;;;;5035979;28;20025;-85
2022/04/24 05:59:36;;;;;;;1.40;0.75;;;12.00;99.90;;;;;;5035844;28;20017;-84
2022/04/24 06:02:02;;;;;;;1.02;0.90;;;12.00;99.90;;;;;;5035726;28;20025;-84
2022/04/24 06:04:27;;;;;;;2.00;0.90;;;12.00;99.90;;;;;;5035778;28;20078;-85
2022/04/24 06:06:53;;;;;;;0.80;0.77;;;12.00;99.90;;;;;;5035701;28;20025;-84
2022/04/24 06:09:19;;;;;;;1.02;0.80;;;12.00;99.90;;;;;;5035645;28;20029;-87
2022/04/24 06:11:45;;;;;;;1.27;0.85;;;12.00;99.90;;;;;;5053483;28;20028;-84
2022/04/24 06:14:12;;;;;;;1.92;0.90;;;12.00;99.90;;;;;;5035506;28;20025;-86
2022/04/24 06:16:37;;;;;;;0.80;0.70;;;12.00;99.90;;;;;;5053371;28;20092;-83
2022/04/24 06:19:03;;;;;;;1.92;0.60;;;12.10;99.90;;;;;;5035455;28;20639;-86
2022/04/24 06:21:29;;;;;;;1.52;0.82;;;12.00;99.90;;;;;;5053296;28;20384;-85
2022/04/24 06:23:54;;;;;;;1.05;0.50;;;12.00;99.90;;;;;;5035005;28;20055;-84
2022/04/24 06:26:20;;;;;;;0.80;0.70;;;12.00;99.90;;;;;;5035053;28;20029;-85
2022/04/24 06:28:46;;;;;;;0.52;0.50;;;12.00;99.90;;;;;;5035273;28;20029;-86
2022/04/24 06:31:11;;;;;;;0.77;0.57;;;12.00;99.90;;;;;;5035338;28;20032;-83
2022/04/24 06:33:37;;;;;;;0.85;0.50;;;12.10;99.90;;;;;;5035238;28;20028;-84
2022/04/24 06:36:03;;;;;;;1.02;0.63;;;12.10;99.90;;;;;;5035276;28;20079;-86
2022/04/24 06:38:29;;;;;;;1.10;0.57;;;12.00;99.90;;;;;;5035276;28;20025;-86
2022/04/24 06:40:54;;;;;;;2.47;0.60;;;12.10;99.90;;;;;;5035702;28;20028;-85
2022/04/24 06:43:20;;;;;;;1.70;0.60;;;12.00;99.90;;;;;;5053058;28;20059;-86
2022/04/24 06:45:46;;;;;;;1.42;0.60;;;12.10;99.90;;;;;;5035226;28;20031;-85
2022/04/24 06:48:16;;;;;;;1.33;0.75;;;12.10;99.90;;;;;;5035475;28;20021;-86
2022/04/24 06:50:44;;;;;;;0.60;0.40;;;12.10;99.90;;;;;;5035071;28;20020;-85
2022/04/24 06:53:18;;;;;;;0.68;0.45;;;12.10;99.90;;;;;;5035012;28;20048;-86
2022/04/24 06:55:45;;;;;;;1.00;0.50;;;12.10;99.90;;;;;;5035073;28;20053;-85
2022/04/24 06:58:13;;;;;;;0.55;0.30;;;12.10;99.90;;;;;;5052933;28;20029;-86
2022/04/24 07:00:41;;;;;;;0.63;0.40;;;12.10;99.90;;;;;;5052984;28;20032;-85
2022/04/24 07:03:10;;;;;;;1.48;0.60;;;12.10;99.90;;;;;;5035242;28;20021;-86
2022/04/24 07:05:37;;;;;;;1.05;0.50;;;12.10;99.90;;;;;;5034906;28;20421;-86
2022/04/24 07:08:02;;;;;;;0.60;0.40;;;12.10;99.90;;;;;;5034848;28;20459;-85
2022/04/24 07:10:28;;;;;;;0.63;0.43;;;12.10;99.90;;;;;;5052950;28;20043;-85
2022/04/24 07:12:54;;;;;;;0.88;0.52;;;12.10;99.90;;;;;;5034746;28;20021;-85
2022/04/24 07:15:22;;;;;;;0.90;0.50;;;12.10;99.90;;;;;;5034695;28;20493;-85
2022/04/24 07:17:49;;;;;;;1.55;0.50;;;12.00;99.90;;;;;;5034723;28;20018;-85
2022/04/24 07:20:16;;;;;;;1.77;0.47;;;12.10;99.90;;;;;;5034643;28;20104;-85
2022/04/24 07:22:45;;;;;;;0.73;0.45;;;12.10;99.90;;;;;;5034552;28;20128;-85
2022/04/24 07:25:16;;;;;;;1.70;0.40;;;12.10;99.90;;;;;;5035438;28;20025;-86
2022/04/24 07:27:42;;;;;;;0.30;0.30;;;12.10;99.90;;;;;;5034704;28;20032;-84
2022/04/24 07:30:13;;;;;;;0.22;0.20;;;12.00;99.90;;;;;;5034619;28;20044;-85
2022/04/24 07:32:59;;;;;;;0.77;0.47;;;12.10;99.90;;;;;;5034715;28;20495;-85
2022/04/24 07:35:26;;;;;;;0.63;0.38;;;12.00;99.90;;;;;;5034786;28;20044;-85
2022/04/24 07:37:52;;;;;;;1.00;0.40;;;12.10;99.90;;;;;;5038323;28;20028;-85
2022/04/24 07:40:23;;;;;;;0.90;0.40;;;12.00;99.90;;;;;;5038569;28;20040;-84
2022/04/24 07:42:51;;;;;;;1.17;0.60;;;12.00;99.90;;;;;;5038301;28;20492;-85
2022/04/24 07:45:29;;;;;;;0.40;0.30;;;12.00;99.90;;;;;;5038187;28;20116;-85
2022/04/24 07:47:56;;;;;;;0.32;0.20;;;12.00;99.90;;;;;;5038061;28;20078;-85
2022/04/24 07:50:25;;;;;;;0.60;0.40;;;12.00;99.90;;;;;;5038209;28;20078;-85
2022/04/24 07:52:51;;;;;;;0.52;0.40;;;12.00;99.90;;;;;;5056012;28;20025;-85
2022/04/24 07:55:19;;;;;;;0.70;0.43;;;12.00;99.90;;;;;;5056219;28;20028;-84
2022/04/24 07:57:46;;;;;;;0.60;0.40;;;12.10;99.90;;;;;;5038027;28;20160;-84
2022/04/24 08:00:13;;;;;;;1.30;0.43;;;12.00;99.90;;;;;;5038271;28;20471;-85
2022/04/24 08:02:45;;;;;;;1.55;0.40;;;12.10;99.90;;;;;;5037939;28;20017;-85
2022/04/24 08:05:11;;;;;;;0.70;0.30;;;12.10;99.90;;;;;;5037904;28;20028;-85
2022/04/24 08:07:37;;;;;;;1.02;0.35;;;12.10;99.90;;;;;;5037857;28;20493;-85
2022/04/24 08:10:02;;;;;;;1.42;0.57;;;12.10;99.90;;;;;;5037830;28;20040;-85
2022/04/24 08:12:28;;;;;;;0.45;0.40;;;12.10;99.90;;;;;;5055685;28;20021;-84
2022/04/24 08:14:54;;;;;;;0.63;0.40;;;12.10;99.90;;;;;;5037565;28;20029;-84
2022/04/24 08:17:19;;;;;;;0.95;0.40;;;12.10;99.90;;;;;;5037688;28;20070;-85
2022/04/24 08:19:45;;;;;;;0.63;0.43;;;12.10;99.90;;;;;;5055857;28;20021;-84
2022/04/24 08:22:10;;;;;;;1.10;0.45;;;12.10;99.90;;;;;;5037448;28;20075;-85
2022/04/24 08:24:36;;;;;;;2.85;0.47;;;12.10;99.90;;;;;;5037613;28;20204;-84
2022/04/24 08:27:02;;;;;;;1.00;0.47;;;12.10;99.90;;;;;;5037570;28;20459;-84
2022/04/24 08:29:27;;;;;;;0.47;0.35;;;12.10;99.90;;;;;;5037390;28;20124;-84
2022/04/24 08:31:53;;;;;;;0.52;0.45;;;12.10;99.90;;;;;;5055285;28;20114;-84
2022/04/24 08:34:19;;;;;;;0.85;0.40;;;12.10;99.90;;;;;;5037300;28;20446;-84
2022/04/24 08:36:44;;;;;;;0.65;0.38;;;12.10;99.90;;;;;;5037265;28;20025;-85
2022/04/24 08:39:11;;;;;;;1.17;0.50;;;12.10;99.90;;;;;;5037291;28;20017;-84
2022/04/24 08:41:40;;;;;;;0.60;0.40;;;12.10;99.90;;;;;;5037259;28;20467;-83
2022/04/24 08:44:08;;;;;;;0.68;0.45;;;12.10;99.90;;;;;;5055565;28;20056;-84
2022/04/24 08:46:34;;;;;;;1.10;0.30;;;12.10;99.90;;;;;;5037163;28;20025;-84
2022/04/24 08:49:01;;;;;;;0.40;0.40;;;12.10;99.90;;;;;;5036225;28;20036;-84
2022/04/24 08:51:28;;;;;;;0.82;0.52;;;12.10;99.90;;;;;;5036900;28;20025;-85
2022/04/24 08:53:56;;;;;;;0.68;0.47;;;12.10;99.90;;;;;;5054822;28;20369;-85
2022/04/24 08:56:22;;;;;;;0.80;0.57;;;12.10;99.90;;;;;;5036978;28;20021;-85
2022/04/24 08:58:48;;;;;;;0.65;0.50;;;12.10;99.90;;;;;;5036982;28;20028;-85
2022/04/24 09:01:13;;;;;;;0.68;0.50;;;12.10;99.90;;;;;;5036934;28;20032;-85
2022/04/24 09:03:39;;;;;;;1.42;0.60;;;12.20;99.90;;;;;;5036868;28;20025;-85
2022/04/24 09:06:05;;;;;;;1.13;0.63;;;12.10;99.90;;;;;;5054777;28;20491;-85
2022/04/24 09:08:35;;;;;;;0.70;0.50;;;12.10;99.90;;;;;;5036736;28;20028;-85
2022/04/24 09:11:02;;;;;;;1.58;0.60;;;12.10;99.90;;;;;;5036767;28;20377;-85
2022/04/24 09:13:29;;;;;;;1.00;0.60;;;12.10;99.90;;;;;;5036640;28;20025;-84
2022/04/24 09:15:59;;;;;;;0.90;0.60;;;12.10;99.90;;;;;;5036984;28;20021;-85
2022/04/24 09:18:41;;;;;;;1.17;0.50;;;12.10;99.90;;;;;;5036778;28;20032;-85
2022/04/24 09:21:09;;;;;;;0.93;0.70;;;12.10;99.90;;;;;;5036520;28;20545;-85
2022/04/24 09:23:36;;;;;;;1.27;0.47;;;12.10;99.90;;;;;;5036279;28;20041;-84
2022/04/24 09:26:02;;;;;;;1.23;0.50;;;12.10;99.90;;;;;;5036394;28;20068;-85
2022/04/24 09:28:40;;;;;;;0.85;0.70;;;12.10;99.90;;;;;;5036435;28;20472;-86
2022/04/24 09:31:07;;;;;;;0.45;0.40;;;12.10;99.90;;;;;;5036380;28;20025;-85
2022/04/24 09:33:43;;;;;;;2.13;0.63;;;12.10;99.90;;;;;;5054068;28;20032;-85
2022/04/24 09:36:10;;;;;;;2.28;0.70;;;12.10;99.90;;;;;;5036254;28;20485;-85
2022/04/24 09:38:45;;;;;;;1.00;0.68;;;12.10;99.90;;;;;;5036476;28;20025;-85
2022/04/24 09:41:19;;;;;;;0.70;0.52;;;12.10;99.90;;;;;;5036126;28;20021;-85
2022/04/24 09:43:45;;;;;;;1.08;0.60;;;12.10;99.90;;;;;;5036208;28;20036;-85
2022/04/24 09:46:11;;;;;;;0.75;0.52;;;12.10;99.90;;;;;;5036073;28;20037;-85
2022/04/24 09:48:37;;;;;;;0.85;0.60;;;12.00;99.90;;;;;;5036263;28;20503;-85
2022/04/24 09:51:03;;;;;;;3.55;0.70;;;12.00;99.90;;;;;;5035956;28;20083;-85
2022/04/24 09:53:31;;;;;;;2.30;0.88;;;12.10;99.90;;;;;;5035858;28;20033;-84
2022/04/24 09:55:59;;;;;;;0.60;0.60;;;12.00;99.90;;;;;;5035950;28;20021;-84
2022/04/24 09:58:25;;;;;;;1.02;0.63;;;12.00;99.90;;;;;;5035786;28;20056;-85
2022/04/24 10:00:52;;;;;;;1.50;0.82;;;12.00;99.90;;;;;;5053751;28;20389;-85
2022/04/24 10:03:19;;;;;;;2.97;0.80;;;12.00;99.90;;;;;;5035686;28;20366;-85
2022/04/24 10:05:47;;;;;;;1.98;1.25;;;12.00;99.90;;;;;;5053569;28;20017;-85
2022/04/24 10:08:14;;;;;;;3.17;2.28;;;12.00;99.90;;;;;;5035644;28;20029;-85
2022/04/24 10:10:40;;;;;;;2.17;1.60;;;12.00;99.90;;;;;;5053486;28;20025;-85
2022/04/24 10:13:09;;;;;;;3.40;2.97;;;12.00;99.90;;;;;;5053422;28;20013;-85
2022/04/24 10:15:39;;;;;;;3.40;3.00;;;12.00;99.90;;;;;;5035407;28;20107;-85
2022/04/24 10:18:10;;;;;;;3.78;3.20;;;12.00;99.90;;;;;;5035536;28;20059;-85
2022/04/24 10:20:42;;;;;;;2.97;2.55;;;12.00;99.90;;;;;;5053388;28;20025;-85
2022/04/24 10:23:09;;;;;;;3.15;2.88;;;12.00;99.90;;;;;;5052952;28;20045;-85
2022/04/24 10:25:40;;;;;;;4.20;3.17;;;12.00;99.90;;;;;;5053430;28;20112;-84
2022/04/24 10:28:15;;;;;;;3.40;2.60;;;12.00;99.90;;;;;;5035296;28;20503;-84
2022/04/24 10:30:41;;;;;;;3.28;2.97;;;12.00;99.90;;;;;;5035235;28;20031;-85
2022/04/24 10:33:17;;;;;;;3.00;2.65;;;11.90;99.90;;;;;;5035162;28;20112;-85
2022/04/24 10:35:53;;;;;;;2.95;2.72;;;12.00;99.90;;;;;;5035197;28;20047;-85
2022/04/24 10:38:23;;;;;;;3.03;2.72;;;11.90;99.90;;;;;;5035205;28;20020;-85
2022/04/24 10:40:58;;;;;;;3.00;2.70;;;12.00;99.90;;;;;;5035199;28;20017;-85
2022/04/24 10:43:25;;;;;;;3.97;2.40;;;11.90;99.90;;;;;;5035102;28;20083;-85
2022/04/24 10:45:52;;;;;;;3.25;2.40;;;12.00;99.90;;;;;;5052975;28;20416;-85
2022/04/24 10:48:19;;;;;;;3.10;2.60;;;11.90;99.90;;;;;;5035061;28;20028;-85
2022/04/24 10:50:52;;;;;;;2.92;2.63;;;11.90;99.90;;;;;;5034966;28;20032;-85
2022/04/24 10:53:18;;;;;;;3.35;2.33;;;11.90;99.90;;;;;;5035029;28;20024;-85
2022/04/24 10:55:44;;;;;;;3.63;2.38;;;11.90;99.90;;;;;;5034997;28;20528;-85
2022/04/24 10:58:10;;;;;;;2.92;2.30;;;11.90;99.90;;;;;;5052821;28;20100;-85
2022/04/24 11:00:38;;;;;;;2.83;2.03;;;11.90;99.90;;;;;;5052845;28;20468;-85
2022/04/24 11:03:05;;;;;;;2.38;2.00;;;11.80;99.90;;;;;;5034884;28;20481;-85
2022/04/24 11:05:36;;;;;;;2.03;1.83;;;11.90;99.90;;;;;;5034920;28;20028;-85
2022/04/24 11:08:06;;;;;;;2.42;2.20;;;11.90;99.90;;;;;;5034904;28;20033;-85
2022/04/24 11:10:42;;;;;;;3.05;1.98;;;11.90;99.90;;;;;;5035365;28;20022;-85
2022/04/24 11:13:21;;;;;;;2.28;2.08;;;11.90;99.90;;;;;;5038893;28;20021;-86
2022/04/24 11:15:49;;;;;;;3.05;2.30;;;11.90;99.90;;;;;;5038775;28;20123;-86
2022/04/24 11:18:26;;;;;;;2.05;1.77;;;11.90;99.90;;;;;;5038707;28;20418;-87
2022/04/24 11:20:56;;;;;;;2.72;2.13;;;11.90;99.90;;;;;;5038965;28;20032;-85
2022/04/24 11:23:26;;;;;;;1.83;1.60;;;11.90;99.90;;;;;;5038486;28;20056;-86
2022/04/24 11:25:57;;;;;;;1.90;1.80;;;11.90;99.90;;;;;;5038587;28;20388;-86
2022/04/24 11:28:44;;;;;;;1.95;1.25;;;11.90;99.90;;;;;;5038517;28;20017;-86
2022/04/24 11:31:20;;;;;;;1.67;1.58;;;11.90;99.90;;;;;;5056463;28;20021;-86
2022/04/24 11:33:55;;;;;;;1.83;1.40;;;11.90;99.90;;;;;;5038361;28;20033;-85
2022/04/24 11:36:22;;;;;;;2.13;1.50;;;11.90;99.90;;;;;;5038426;28;20025;-86
2022/04/24 11:38:50;;;;;;;1.95;1.58;;;12.00;99.90;;;;;;5056321;28;20025;-86
2022/04/24 11:41:16;;;;;;;1.70;1.60;;;12.00;99.90;;;;;;5038352;28;20027;-86
2022/04/24 11:43:42;;;;;;;1.52;1.42;;;12.00;99.90;;;;;;5056226;28;20029;-87
2022/04/24 11:50:13;;;;;;;1.67;1.48;;;12.00;99.90;;;;;;5056521;28;20035;-86
2022/04/24 11:51:50;;;;;;;2.97;1.80;;;12.00;99.90;;;;;;5055342;28;20132;-86
2022/04/24 11:54:17;;;;;;;2.28;1.50;;;12.00;99.90;;;;;;5055998;28;20516;-86
2022/04/24 11:56:42;;;;;;;2.28;1.63;;;12.00;99.90;;;;;;5055960;28;20029;-87
2022/04/24 11:59:12;;;;;;;1.63;1.40;;;12.00;99.90;;;;;;5038040;28;20124;-87
2022/04/24 12:01:38;;;;;;;2.47;1.48;;;12.00;99.90;;;;;;5037990;28;20024;-87
2022/04/24 12:04:04;;;;;;;1.77;1.40;;;12.00;99.90;;;;;;5037924;28;20025;-86
2022/04/24 12:06:33;;;;;;;2.78;1.42;;;12.00;99.90;;;;;;5037864;28;20048;-87
2022/04/24 12:09:10;;;;;;;1.67;1.48;;;12.00;99.90;;;;;;5037865;28;20500;-86
2022/04/24 12:11:36;;;;;;;2.53;1.70;;;12.10;99.90;;;;;;5055694;28;20021;-87
2022/04/24 12:14:03;;;;;;;1.70;1.30;;;12.10;99.90;;;;;;5038484;28;20082;-86
2022/04/24 12:16:30;;;;;;;3.20;1.60;;;12.00;99.90;;;;;;5037641;28;20029;-87
2022/04/24 12:18:57;;;;;;;2.50;1.73;;;12.00;99.90;;;;;;5037625;28;20029;-86
2022/04/24 12:21:27;;;;;;;2.05;1.55;;;12.00;99.90;;;;;;5037470;28;20441;-86
2022/04/24 12:23:54;;;;;;;1.73;1.40;;;12.00;99.90;;;;;;5036258;28;20045;-87
2022/04/24 12:26:21;;;;;;;3.03;1.50;;;12.10;99.90;;;;;;5055369;28;20057;-86
2022/04/24 12:28:47;;;;;;;3.17;1.30;;;12.10;99.90;;;;;;5037483;28;20369;-86
2022/04/24 12:31:23;;;;;;;2.42;1.50;;;12.10;99.90;;;;;;5037424;28;20040;-87
2022/04/24 12:33:51;;;;;;;1.67;1.27;;;12.00;99.90;;;;;;5037307;28;20036;-86
2022/04/24 12:36:17;;;;;;;1.70;1.20;;;12.10;99.90;;;;;;5037314;28;20021;-87
2022/04/24 12:39:04;;;;;;;1.90;1.33;;;12.10;99.90;;;;;;5037388;28;20595;-87
2022/04/24 12:41:30;;;;;;;1.65;1.35;;;12.10;99.90;;;;;;5037247;28;20074;-86
2022/04/24 12:44:00;;;;;;;1.48;1.15;;;12.10;99.90;;;;;;5037264;28;20108;-86
2022/04/24 12:46:26;;;;;;;1.50;1.30;;;12.10;99.90;;;;;;5037153;28;20507;-87